»·PEaware :: N512PC KLAX-KSNA

N512PC :: KLAX-KSNA

FLIGHT INFORMATION

Flight Status: Arrived
Operator: Privately registered:
United States
More flights under this callsign
Pilot: Jacob V. (20481)
Aircraft: BEECH AIRCRAFT BARON
(BE58)
More flights by this aircraft type
Origin: KLAX Los Angeles Intl
United States
Destination: KSNA John Wayne-Orange Co
United States
More flights between these airports :: More routes between these airports
Route: SLI8 SLI LAXP55
File this flight plan on PilotEdge
Remarks:
Altitude:
(Current/Filed)
4,000ft
Speed:
(Current/Filed)
160kts
Departed: 05-Oct-18 07:15 PM
Arrived: 05-Oct-18 07:50 PM
Distance/Time
Traveled:
31nm/0:35
Distance/Time
To Go:
Arrived

Flight Plot

Page will automatically refresh every two minutes.

Flight plan parsing failed; only flown route is shown


Map Options




Map Legend


Flown Route
Filed Route
Departure Airport
Arrival Airport
Navaid (VOR, NDB)
Fix

Horizontal Profiles

Position Reports

Time Latitude Longitude Heading Altitude Ground
Speed
05-Oct-18 18:57 33.932731 -118.399124 21 111ft 0kts
05-Oct-18 18:58 33.932731 -118.399124 21 111ft 0kts
05-Oct-18 18:59 33.932731 -118.399124 21 111ft 0kts
05-Oct-18 19:00 33.932731 -118.399124 21 111ft 0kts
05-Oct-18 19:01 33.932731 -118.399124 21 111ft 0kts
05-Oct-18 19:02 33.932731 -118.399124 21 111ft 0kts
05-Oct-18 19:03 33.932731 -118.399124 21 111ft 0kts
05-Oct-18 19:04 33.932731 -118.399124 21 111ft 0kts
05-Oct-18 19:05 33.932732 -118.399124 22 111ft 0kts
05-Oct-18 19:06 33.932732 -118.399124 22 111ft 0kts
05-Oct-18 19:07 33.932732 -118.399124 22 111ft 0kts
05-Oct-18 19:08 33.932732 -118.399124 22 111ft 0kts
05-Oct-18 19:09 33.933099 -118.398964 19 110ft 12kts
05-Oct-18 19:10 33.934864 -118.395243 83 105ft 26kts
05-Oct-18 19:11 33.935491 -118.388981 82 99ft 24kts
05-Oct-18 19:12 33.936354 -118.382790 25 95ft 6kts
05-Oct-18 19:13 33.936393 -118.382771 19 95ft 0kts
05-Oct-18 19:14 33.936393 -118.382771 19 95ft 0kts
05-Oct-18 19:15 33.936393 -118.382771 19 95ft 0kts
05-Oct-18 19:16 33.937271 -118.383693 263 96ft 8kts
05-Oct-18 19:17 33.935150 -118.415837 268 1139ft 130kts
05-Oct-18 19:18 33.932205 -118.459131 238 3167ft 130kts
05-Oct-18 19:19 33.894411 -118.472929 186 4252ft 164kts
05-Oct-18 19:20 33.844912 -118.477230 183 3992ft 177kts
05-Oct-18 19:21 33.804772 -118.450582 131 3994ft 176kts
05-Oct-18 19:22 33.772769 -118.405710 130 3997ft 183kts
05-Oct-18 19:23 33.739671 -118.359313 130 3993ft 184kts
05-Oct-18 19:24 33.710334 -118.318144 130 3990ft 175kts
05-Oct-18 19:25 33.681675 -118.277907 130 3993ft 168kts
05-Oct-18 19:26 33.676241 -118.229441 48 3993ft 167kts
05-Oct-18 19:27 33.709954 -118.190836 50 3995ft 170kts
05-Oct-18 19:28 33.737345 -118.145474 56 3994ft 172kts
05-Oct-18 19:29 33.761808 -118.097928 59 3994ft 175kts
05-Oct-18 19:30 33.784531 -118.051495 60 3993ft 173kts
05-Oct-18 19:31 33.804161 -118.004078 64 3993ft 169kts
05-Oct-18 19:32 33.823021 -117.956062 64 3993ft 169kts
05-Oct-18 19:33 33.842347 -117.907429 64 3993ft 168kts
05-Oct-18 19:34 33.861935 -117.858315 64 3993ft 168kts
05-Oct-18 19:35 33.882038 -117.807922 64 3994ft 169kts
05-Oct-18 19:36 33.902246 -117.757023 64 3993ft 169kts
05-Oct-18 19:37 33.923400 -117.706316 49 3990ft 169kts
05-Oct-18 19:38 33.964340 -117.676925 28 3710ft 179kts
05-Oct-18 19:39 34.008227 -117.650025 10 3489ft 174kts
05-Oct-18 19:40 34.040354 -117.679353 274 3493ft 170kts
05-Oct-18 19:41 34.012861 -117.718667 206 3494ft 170kts
05-Oct-18 19:42 33.970577 -117.743172 197 3490ft 170kts
05-Oct-18 19:43 33.927535 -117.724948 151 3494ft 170kts
05-Oct-18 19:44 33.884784 -117.732057 215 3471ft 171kts
05-Oct-18 19:45 33.844227 -117.761528 208 3393ft 171kts
05-Oct-18 19:46 33.803228 -117.787814 207 3030ft 157kts
05-Oct-18 19:47 33.772900 -117.807095 207 2500ft 110kts
05-Oct-18 19:48 33.747288 -117.824196 214 1555ft 101kts
05-Oct-18 19:49 33.721785 -117.838997 212 923ft 111kts
05-Oct-18 19:50 33.697283 -117.855073 209 419ft 106kts
05-Oct-18 19:51 33.673983 -117.869882 209 49ft 72kts
05-Oct-18 19:52 33.670187 -117.873607 290 52ft 7kts
05-Oct-18 19:53 33.670679 -117.874664 25 52ft 0kts
05-Oct-18 19:54 33.670679 -117.874665 25 52ft 0kts

Navigation Log

Ident Type
Flight plan parsing failed, navigation log unavailable